Time;durP1;ratioP1;P1;durP2;ratioP2;P2;SDS_P1;SDS_P2;PMS_P1;PMS_P2;Temp;Humidity;BMP_temperature;BMP_pressure;BME280_temperature;BME280_humidity;BME280_pressure;Samples;Min_cycle;Max_cycle;Signal;HPM_P1;HPM_P2
2021/12/24 00:01:22;;;;;;;18.03;14.10;;;10.80;99.90;;;;;;4980223;28;20206;-25
2021/12/24 00:03:50;;;;;;;19.63;14.30;;;10.90;99.90;;;;;;4971727;28;20203;-25
2021/12/24 00:06:18;;;;;;;18.90;14.67;;;10.90;99.90;;;;;;4970747;28;20226;-25
2021/12/24 00:08:46;;;;;;;19.37;14.17;;;10.90;99.90;;;;;;4971788;28;20195;-25
2021/12/24 00:11:18;;;;;;;19.83;13.70;;;10.90;99.90;;;;;;4969555;28;20757;-25
2021/12/24 00:13:48;;;;;;;20.00;12.60;;;11.00;99.90;;;;;;4971447;28;20219;-25
2021/12/24 00:16:25;;;;;;;19.98;15.07;;;11.00;99.90;;;;;;4970589;28;20410;-25
2021/12/24 00:19:11;;;;;;;19.73;15.38;;;11.20;99.90;;;;;;4969539;28;20411;-25
2021/12/24 00:35:33;;;;;;;18.33;13.40;;;11.30;99.90;;;;;;4970986;28;20214;-25
2021/12/24 00:38:07;;;;;;;19.53;12.50;;;11.30;99.90;;;;;;4979616;28;20748;-25
2021/12/24 00:40:47;;;;;;;18.90;12.83;;;11.30;99.90;;;;;;4969230;28;20211;-25
2021/12/24 00:43:16;;;;;;;19.17;12.60;;;11.30;99.90;;;;;;4970950;28;20210;-25
2021/12/24 00:45:47;;;;;;;16.73;11.57;;;11.30;99.90;;;;;;4970310;28;20203;-25
2021/12/24 00:48:19;;;;;;;20.87;12.33;;;11.30;99.90;;;;;;4971448;28;20243;-25
2021/12/24 00:50:56;;;;;;;16.30;12.17;;;11.30;99.90;;;;;;4974357;28;20219;-25
2021/12/24 00:56:10;;;;;;;18.33;11.93;;;11.30;99.90;;;;;;4973616;28;20689;-25
2021/12/24 00:58:38;;;;;;;16.70;11.60;;;11.30;99.90;;;;;;4981935;28;20207;-25
2021/12/24 01:01:06;;;;;;;16.67;12.13;;;11.30;99.90;;;;;;4973338;28;20204;-25
2021/12/24 01:03:34;;;;;;;19.10;13.03;;;11.30;99.90;;;;;;4986101;28;20673;-25
2021/12/24 01:06:01;;;;;;;19.20;11.93;;;11.30;99.90;;;;;;4974010;28;20203;-25
2021/12/24 01:08:29;;;;;;;21.07;12.83;;;11.30;99.90;;;;;;4980580;28;20211;-25
2021/12/24 01:10:59;;;;;;;19.23;13.90;;;11.30;99.90;;;;;;4982497;28;20203;-25
2021/12/24 01:13:28;;;;;;;18.57;12.90;;;11.30;99.90;;;;;;4970854;28;20442;-25
2021/12/24 01:16:16;;;;;;;19.90;12.70;;;11.30;99.90;;;;;;4983602;28;20689;-25
2021/12/24 01:21:25;;;;;;;20.07;13.40;;;11.30;99.90;;;;;;4986685;28;20194;-25
2021/12/24 01:23:57;;;;;;;19.87;12.73;;;11.30;99.90;;;;;;4985999;28;20198;-25
2021/12/24 01:29:31;;;;;;;21.83;12.27;;;11.40;99.90;;;;;;4973602;28;20632;-25
2021/12/24 01:42:40;;;;;;;19.93;13.23;;;11.40;99.90;;;;;;4977835;28;20209;-25
2021/12/24 01:43:09;;;;;;;21.03;13.40;;;11.40;99.90;;;;;;4976678;28;20211;-25
2021/12/24 01:45:46;;;;;;;21.87;14.63;;;11.40;99.90;;;;;;4968794;28;20199;-25
2021/12/24 01:48:14;;;;;;;23.23;13.03;;;11.40;99.90;;;;;;4973078;28;20268;-24
2021/12/24 01:50:42;;;;;;;23.03;13.37;;;11.40;99.90;;;;;;4982510;28;20214;-24
2021/12/24 01:53:10;;;;;;;19.50;13.93;;;11.40;99.90;;;;;;4968911;28;20265;-23
2021/12/24 01:55:38;;;;;;;18.50;13.20;;;11.40;99.90;;;;;;4986175;28;20216;-24
2021/12/24 01:58:08;;;;;;;20.83;12.50;;;11.40;99.90;;;;;;4981280;28;20234;-24
2021/12/24 02:00:44;;;;;;;18.10;12.80;;;11.40;99.90;;;;;;4984212;28;20305;-23
2021/12/24 02:03:12;;;;;;;19.93;14.07;;;11.40;99.90;;;;;;4998246;28;20213;-23
2021/12/24 02:05:41;;;;;;;21.67;14.57;;;11.50;99.90;;;;;;4978839;28;20624;-24
2021/12/24 02:08:10;;;;;;;22.70;14.30;;;11.50;99.90;;;;;;4984617;28;20250;-24
2021/12/24 02:10:40;;;;;;;22.53;12.77;;;11.50;99.90;;;;;;4972121;28;20204;-24
2021/12/24 02:13:07;;;;;;;22.00;13.50;;;11.50;99.90;;;;;;4984065;28;20309;-24
2021/12/24 02:16:01;;;;;;;19.73;13.10;;;11.50;99.90;;;;;;4974833;28;20279;-23
2021/12/24 02:29:41;;;;;;;20.63;13.40;;;11.50;99.90;;;;;;4976269;28;20206;-25
2021/12/24 02:32:08;;;;;;;24.47;14.43;;;11.50;99.90;;;;;;4969223;28;20234;-25
2021/12/24 02:34:36;;;;;;;24.33;13.53;;;11.50;99.90;;;;;;4972837;28;20199;-25
2021/12/24 02:37:07;;;;;;;23.37;13.53;;;11.50;99.90;;;;;;4969019;28;20223;-25
2021/12/24 02:39:37;;;;;;;19.30;12.50;;;11.50;99.90;;;;;;4971203;28;20553;-25
2021/12/24 02:42:11;;;;;;;20.53;13.33;;;11.50;99.90;;;;;;4977891;28;20226;-25
2021/12/24 02:44:39;;;;;;;22.70;13.33;;;11.50;99.90;;;;;;4999196;28;20199;-25
2021/12/24 02:47:14;;;;;;;22.90;13.90;;;11.50;99.90;;;;;;4968760;28;20214;-25
2021/12/24 02:55:10;;;;;;;22.33;12.83;;;11.50;99.90;;;;;;4985284;28;20661;-26
2021/12/24 02:57:38;;;;;;;19.93;13.20;;;11.50;99.90;;;;;;4978858;28;20230;-25
2021/12/24 03:00:19;;;;;;;23.33;13.67;;;11.50;99.90;;;;;;4969440;28;20198;-25
2021/12/24 03:02:50;;;;;;;21.03;13.00;;;11.60;99.90;;;;;;4969864;28;20265;-25
2021/12/24 03:05:20;;;;;;;20.03;12.67;;;11.50;99.90;;;;;;4968910;28;20219;-25
2021/12/24 03:07:48;;;;;;;18.67;12.90;;;11.50;99.90;;;;;;4968374;28;20219;-25
2021/12/24 03:10:20;;;;;;;22.80;12.40;;;11.50;99.90;;;;;;4968431;28;20572;-25
2021/12/24 03:12:52;;;;;;;20.87;12.40;;;11.50;99.90;;;;;;4993598;28;20727;-25
2021/12/24 03:15:22;;;;;;;21.37;12.93;;;11.60;99.90;;;;;;4970439;28;20257;-24
2021/12/24 03:17:54;;;;;;;18.43;12.53;;;11.60;99.90;;;;;;4968592;28;20229;-24
2021/12/24 03:20:22;;;;;;;21.97;13.10;;;11.60;99.90;;;;;;4969188;28;20247;-24
2021/12/24 03:23:10;;;;;;;20.50;12.20;;;11.60;99.90;;;;;;4970654;28;20302;-24
2021/12/24 03:25:41;;;;;;;18.33;11.73;;;11.60;99.90;;;;;;4967890;28;20195;-24
2021/12/24 03:28:09;;;;;;;19.50;12.40;;;11.60;99.90;;;;;;4968253;28;20203;-24
2021/12/24 03:30:36;;;;;;;19.97;12.37;;;11.60;99.90;;;;;;4971744;28;20219;-24
2021/12/24 03:33:03;;;;;;;20.03;12.23;;;11.60;99.90;;;;;;4972848;28;20306;-24
2021/12/24 03:35:31;;;;;;;21.97;12.30;;;11.60;99.90;;;;;;4971578;28;20238;-23
2021/12/24 03:37:58;;;;;;;17.73;11.63;;;11.60;99.90;;;;;;4972385;28;20571;-24
2021/12/24 03:40:26;;;;;;;18.60;11.23;;;11.60;99.90;;;;;;4971158;28;20211;-24
2021/12/24 03:43:02;;;;;;;20.30;11.27;;;11.60;99.90;;;;;;4971608;28;20685;-24
2021/12/24 03:45:44;;;;;;;21.43;11.93;;;11.60;99.90;;;;;;4977333;28;20205;-24
2021/12/24 03:48:18;;;;;;;18.50;12.27;;;11.60;99.90;;;;;;4980337;28;20651;-24
2021/12/24 03:51:07;;;;;;;17.40;11.90;;;11.60;99.90;;;;;;4991300;28;20609;-24
2021/12/24 03:56:20;;;;;;;22.77;11.63;;;11.70;99.90;;;;;;4970918;28;20301;-24
2021/12/24 03:58:48;;;;;;;17.30;10.80;;;11.70;99.90;;;;;;4983155;28;20222;-24
2021/12/24 04:01:16;;;;;;;19.13;11.20;;;11.70;99.90;;;;;;4971381;28;20242;-24
2021/12/24 04:03:44;;;;;;;21.63;11.53;;;11.70;99.90;;;;;;4971202;28;20885;-25
2021/12/24 04:06:11;;;;;;;21.47;12.07;;;11.70;99.90;;;;;;4971193;28;20198;-24
2021/12/24 04:08:39;;;;;;;17.60;11.50;;;11.70;99.90;;;;;;4971976;28;20210;-24
2021/12/24 04:11:06;;;;;;;24.30;12.37;;;11.70;99.90;;;;;;4970788;28;20234;-24
2021/12/24 04:13:39;;;;;;;19.17;11.80;;;11.70;99.90;;;;;;4987430;28;20213;-24
2021/12/24 04:16:09;;;;;;;24.07;11.57;;;11.70;99.90;;;;;;4988918;28;20210;-24
2021/12/24 04:18:52;;;;;;;20.90;11.73;;;11.70;99.90;;;;;;4971160;28;20215;-23
2021/12/24 04:26:59;;;;;;;21.40;12.03;;;11.70;99.90;;;;;;4975976;28;20260;-24
2021/12/24 04:29:27;;;;;;;19.93;12.13;;;11.70;99.90;;;;;;4979575;28;20320;-24
2021/12/24 04:32:08;;;;;;;29.13;12.70;;;11.70;99.90;;;;;;4989031;28;20278;-23
2021/12/24 04:34:37;;;;;;;20.97;11.87;;;11.70;99.90;;;;;;4971383;28;20217;-23
2021/12/24 04:50:58;;;;;;;24.17;12.50;;;11.70;99.90;;;;;;4977061;28;20218;-24
2021/12/24 05:04:33;;;;;;;24.00;13.13;;;11.70;99.90;;;;;;4970237;28;20293;-24
2021/12/24 05:07:56;;;;;;;25.23;13.03;;;11.70;99.90;;;;;;4970327;28;20718;-23
2021/12/24 05:09:54;;;;;;;25.93;13.27;;;11.70;99.90;;;;;;4979308;28;20214;-24
2021/12/24 05:12:22;;;;;;;24.63;11.90;;;11.70;99.90;;;;;;4982015;28;20223;-23
2021/12/24 05:14:49;;;;;;;24.27;12.27;;;11.70;99.90;;;;;;4977001;28;20368;-24
2021/12/24 05:22:33;;;;;;;18.47;11.63;;;11.70;99.90;;;;;;4973284;28;20649;-24
2021/12/24 05:25:01;;;;;;;23.30;11.50;;;11.70;99.90;;;;;;4967828;28;20199;-24
2021/12/24 05:27:28;;;;;;;24.77;12.03;;;11.70;99.90;;;;;;4969788;28;20199;-24
2021/12/24 05:29:56;;;;;;;20.20;10.93;;;11.70;99.90;;;;;;4972531;28;20202;-24
2021/12/24 05:32:23;;;;;;;26.30;12.13;;;11.70;99.90;;;;;;4977659;28;20202;-24
2021/12/24 05:34:51;;;;;;;21.00;11.80;;;11.70;99.90;;;;;;4986670;28;20202;-24
2021/12/24 05:37:20;;;;;;;20.93;11.50;;;11.70;99.90;;;;;;4969827;28;20207;-24
2021/12/24 05:39:50;;;;;;;20.97;10.93;;;11.70;99.90;;;;;;4973477;28;20216;-24
2021/12/24 05:42:18;;;;;;;17.97;10.60;;;11.70;99.90;;;;;;4978014;28;20199;-24
2021/12/24 05:44:47;;;;;;;23.03;10.80;;;11.80;99.90;;;;;;4972567;28;20199;-24
2021/12/24 05:47:16;;;;;;;21.83;11.23;;;11.80;99.90;;;;;;4969465;28;20237;-24
2021/12/24 05:49:44;;;;;;;18.83;10.73;;;11.70;99.90;;;;;;4971857;28;20271;-24
2021/12/24 05:52:13;;;;;;;22.53;10.97;;;11.70;99.90;;;;;;4976318;28;20273;-24
2021/12/24 05:54:40;;;;;;;22.87;11.03;;;11.70;99.90;;;;;;4976290;28;20284;-24
2021/12/24 05:57:07;;;;;;;22.03;11.80;;;11.70;99.90;;;;;;4968193;28;20749;-23
2021/12/24 05:59:35;;;;;;;20.30;11.13;;;11.70;99.90;;;;;;4984981;28;20321;-24
2021/12/24 06:02:02;;;;;;;22.87;11.23;;;11.70;99.90;;;;;;4974957;28;20206;-24
2021/12/24 06:04:30;;;;;;;24.83;12.00;;;11.70;99.90;;;;;;4973248;28;20195;-24
2021/12/24 06:06:58;;;;;;;23.07;11.40;;;11.70;99.90;;;;;;4983307;28;20210;-24
2021/12/24 06:09:25;;;;;;;23.53;12.17;;;11.70;99.90;;;;;;4968883;28;20213;-24
2021/12/24 06:11:54;;;;;;;23.23;11.47;;;11.70;99.90;;;;;;4969503;28;20669;-23
2021/12/24 06:14:24;;;;;;;19.17;11.03;;;11.70;99.90;;;;;;4972778;28;20318;-24
2021/12/24 06:17:01;;;;;;;22.53;11.63;;;11.70;99.90;;;;;;4975904;28;20572;-24
2021/12/24 06:19:33;;;;;;;21.73;11.70;;;11.70;99.90;;;;;;4974715;28;20884;-24
2021/12/24 06:22:01;;;;;;;21.13;11.13;;;11.70;99.90;;;;;;4979430;28;20748;-24
2021/12/24 06:24:30;;;;;;;22.37;11.13;;;11.70;99.90;;;;;;4984033;28;20202;-24
2021/12/24 06:26:58;;;;;;;24.97;12.53;;;11.70;99.90;;;;;;4972593;28;20309;-24
2021/12/24 06:29:25;;;;;;;19.80;11.27;;;11.70;99.90;;;;;;4984552;28;20206;-24
2021/12/24 06:31:55;;;;;;;24.77;11.77;;;11.70;99.90;;;;;;4988216;28;20323;-23
2021/12/24 06:34:23;;;;;;;22.33;12.63;;;11.70;99.90;;;;;;4987371;28;20210;-25
2021/12/24 06:36:52;;;;;;;24.43;12.50;;;11.70;99.90;;;;;;4975272;28;20206;-25
2021/12/24 06:39:22;;;;;;;21.70;12.43;;;11.70;99.90;;;;;;4981878;28;20230;-25
2021/12/24 06:41:49;;;;;;;22.13;12.70;;;11.70;99.90;;;;;;4985976;28;20206;-25
2021/12/24 06:44:16;;;;;;;23.03;13.40;;;11.60;99.90;;;;;;4983134;28;20198;-25
2021/12/24 06:46:44;;;;;;;24.73;13.37;;;11.70;99.90;;;;;;4986027;28;20649;-25
2021/12/24 06:49:13;;;;;;;25.60;12.40;;;11.60;99.90;;;;;;4979473;28;21539;-25
2021/12/24 06:51:41;;;;;;;18.40;11.67;;;11.60;99.90;;;;;;4973427;28;21119;-25
2021/12/24 06:54:10;;;;;;;23.17;12.53;;;11.60;99.90;;;;;;4972807;28;20226;-25
2021/12/24 06:56:43;;;;;;;25.97;13.97;;;11.60;99.90;;;;;;4971947;28;20624;-25
2021/12/24 06:59:11;;;;;;;25.10;12.97;;;11.60;99.90;;;;;;4967308;28;20607;-25
2021/12/24 07:01:41;;;;;;;25.97;13.70;;;11.60;99.90;;;;;;4976527;28;20265;-25
2021/12/24 07:04:10;;;;;;;28.63;14.50;;;11.60;99.90;;;;;;4988230;28;20214;-25
2021/12/24 07:06:45;;;;;;;27.93;14.07;;;11.60;99.90;;;;;;4973644;28;20310;-25
2021/12/24 07:09:15;;;;;;;22.73;14.23;;;11.60;99.90;;;;;;4972641;28;20234;-25
2021/12/24 07:11:42;;;;;;;24.63;14.07;;;11.60;99.90;;;;;;4985999;28;20225;-25
2021/12/24 07:14:10;;;;;;;24.27;14.63;;;11.60;99.90;;;;;;4971817;28;20210;-25
2021/12/24 07:16:38;;;;;;;23.87;13.50;;;11.60;99.90;;;;;;4972059;28;20203;-25
2021/12/24 07:19:05;;;;;;;23.93;14.00;;;11.70;99.90;;;;;;4972186;28;20227;-25
2021/12/24 07:21:35;;;;;;;26.33;14.30;;;11.70;99.90;;;;;;4974711;28;20253;-25
2021/12/24 07:24:06;;;;;;;23.00;13.43;;;11.70;99.90;;;;;;4975265;28;20221;-25
2021/12/24 07:26:34;;;;;;;23.50;13.27;;;11.60;99.90;;;;;;4971321;28;20694;-25
2021/12/24 07:29:02;;;;;;;23.87;13.37;;;11.60;99.90;;;;;;4972669;28;20242;-25
2021/12/24 07:31:29;;;;;;;25.33;13.67;;;11.60;99.90;;;;;;4973862;28;20258;-25
2021/12/24 07:33:59;;;;;;;23.63;13.00;;;11.60;99.90;;;;;;4978378;28;20221;-25
2021/12/24 07:36:26;;;;;;;25.17;12.83;;;11.60;99.90;;;;;;4974240;28;20697;-25
2021/12/24 07:38:56;;;;;;;25.77;13.70;;;11.70;99.90;;;;;;4974579;28;20237;-25
2021/12/24 07:41:25;;;;;;;25.63;13.37;;;11.60;99.90;;;;;;4983043;28;20411;-25
2021/12/24 07:43:56;;;;;;;24.77;14.33;;;11.70;99.90;;;;;;4971454;28;20222;-25
2021/12/24 07:46:33;;;;;;;24.17;13.00;;;11.60;99.90;;;;;;4988209;28;20625;-25
2021/12/24 07:49:17;;;;;;;20.77;12.73;;;11.70;99.90;;;;;;4980335;28;20230;-25
2021/12/24 07:54:33;;;;;;;21.87;12.37;;;11.70;99.90;;;;;;4989657;28;20293;-25
2021/12/24 07:57:03;;;;;;;26.43;13.33;;;11.60;99.90;;;;;;4986562;28;20198;-25
2021/12/24 07:59:38;;;;;;;21.10;12.97;;;11.60;99.90;;;;;;4971884;28;20289;-25
2021/12/24 08:02:15;;;;;;;20.50;12.73;;;11.60;99.90;;;;;;4987271;28;20193;-25
2021/12/24 08:04:44;;;;;;;18.27;12.57;;;11.60;99.90;;;;;;4971570;28;20217;-25
2021/12/24 08:07:12;;;;;;;24.07;13.13;;;11.60;99.90;;;;;;4975622;28;20207;-25
2021/12/24 08:09:39;;;;;;;20.83;12.80;;;11.60;99.90;;;;;;4971556;28;20424;-25
2021/12/24 08:12:09;;;;;;;20.40;12.73;;;11.60;99.90;;;;;;4973903;28;20198;-25
2021/12/24 08:14:36;;;;;;;21.60;13.30;;;11.60;99.90;;;;;;4984170;28;20218;-25
2021/12/24 08:17:04;;;;;;;23.57;13.50;;;11.60;99.90;;;;;;4979654;28;20217;-25
2021/12/24 08:19:32;;;;;;;24.30;13.23;;;11.60;99.90;;;;;;4979100;28;20222;-25
2021/12/24 08:22:00;;;;;;;21.87;13.83;;;11.60;99.90;;;;;;4988192;28;21008;-25
2021/12/24 08:24:27;;;;;;;27.10;14.63;;;11.50;99.90;;;;;;4974884;28;20626;-25
2021/12/24 08:26:57;;;;;;;25.13;14.83;;;11.50;99.90;;;;;;4970596;28;20198;-25
2021/12/24 08:29:25;;;;;;;26.47;15.93;;;11.50;99.90;;;;;;4977826;28;20211;-25
2021/12/24 08:31:55;;;;;;;26.27;16.30;;;11.50;99.90;;;;;;4982469;28;21055;-25
2021/12/24 08:34:23;;;;;;;30.37;16.37;;;11.50;99.90;;;;;;4971766;28;20674;-25
2021/12/24 08:36:54;;;;;;;27.83;16.50;;;11.50;99.90;;;;;;4984264;28;20206;-25
2021/12/24 08:39:24;;;;;;;24.07;15.57;;;11.50;99.90;;;;;;4979584;28;20280;-25
2021/12/24 08:41:54;;;;;;;24.73;16.20;;;11.50;99.90;;;;;;4981413;28;20302;-25
2021/12/24 08:44:24;;;;;;;26.83;15.20;;;11.50;99.90;;;;;;4976295;28;20286;-25
2021/12/24 08:46:55;;;;;;;26.90;15.80;;;11.50;99.90;;;;;;4980376;28;20202;-25
2021/12/24 08:49:23;;;;;;;25.23;15.60;;;11.50;99.90;;;;;;4984136;28;20297;-25
2021/12/24 08:51:51;;;;;;;25.10;14.90;;;11.50;99.90;;;;;;4972684;28;20320;-25
2021/12/24 08:54:19;;;;;;;29.43;15.53;;;11.50;99.90;;;;;;4978118;28;20238;-25
2021/12/24 08:56:52;;;;;;;25.67;15.47;;;11.50;99.90;;;;;;4969795;28;20203;-25
2021/12/24 08:59:20;;;;;;;26.33;15.53;;;11.50;99.90;;;;;;4971091;28;20234;-25
2021/12/24 09:01:47;;;;;;;19.97;14.20;;;11.50;99.90;;;;;;4970070;28;20290;-25
2021/12/24 09:04:14;;;;;;;27.23;15.03;;;11.50;99.90;;;;;;4970890;28;20443;-25
2021/12/24 09:06:42;;;;;;;24.97;14.17;;;11.50;99.90;;;;;;4970548;28;20560;-25
2021/12/24 09:09:10;;;;;;;24.17;14.17;;;11.50;99.90;;;;;;4976472;28;20633;-25
2021/12/24 09:11:40;;;;;;;29.90;15.10;;;11.50;99.90;;;;;;4986998;28;20194;-25
2021/12/24 09:14:11;;;;;;;25.43;13.60;;;11.50;99.90;;;;;;4989815;28;20199;-25
2021/12/24 09:16:39;;;;;;;25.53;14.03;;;11.60;99.90;;;;;;4986483;28;20570;-25
2021/12/24 09:19:13;;;;;;;26.17;14.00;;;11.50;99.90;;;;;;4970054;28;20246;-25
2021/12/24 09:21:40;;;;;;;25.00;13.03;;;11.50;99.90;;;;;;4969356;28;20198;-25
2021/12/24 09:24:08;;;;;;;25.53;13.80;;;11.50;99.90;;;;;;4988142;28;20225;-25
2021/12/24 09:26:36;;;;;;;24.03;14.47;;;11.60;99.90;;;;;;4974761;28;20219;-25
2021/12/24 09:29:07;;;;;;;24.20;14.30;;;11.50;99.90;;;;;;4982984;28;20249;-25
2021/12/24 09:31:34;;;;;;;19.73;12.43;;;11.60;99.90;;;;;;4987924;28;20209;-25
2021/12/24 09:34:03;;;;;;;23.47;14.03;;;11.60;99.90;;;;;;4970988;28;20573;-25
2021/12/24 09:36:30;;;;;;;24.50;13.97;;;11.60;99.90;;;;;;4970130;28;20238;-25
2021/12/24 09:39:05;;;;;;;24.63;13.73;;;11.60;99.90;;;;;;4981534;28;20272;-25
2021/12/24 09:41:36;;;;;;;25.13;14.83;;;11.60;99.90;;;;;;4988676;28;20624;-25
2021/12/24 09:44:05;;;;;;;24.53;13.83;;;11.60;99.90;;;;;;4988955;28;20297;-25
2021/12/24 09:46:40;;;;;;;24.53;13.80;;;11.60;99.90;;;;;;4989395;28;20585;-25
2021/12/24 09:49:09;;;;;;;27.83;14.73;;;11.60;99.90;;;;;;4989330;28;20217;-25
2021/12/24 09:51:41;;;;;;;23.90;13.97;;;11.70;99.90;;;;;;4976977;28;20247;-25
2021/12/24 09:54:14;;;;;;;23.47;14.53;;;11.70;99.90;;;;;;4969930;28;20586;-25
2021/12/24 09:56:44;;;;;;;19.90;13.40;;;11.60;99.90;;;;;;4987110;28;20217;-25
2021/12/24 09:59:11;;;;;;;29.43;14.67;;;11.70;99.90;;;;;;4989091;28;20233;-25
2021/12/24 10:01:55;;;;;;;26.03;13.90;;;11.70;99.90;;;;;;4988893;28;20206;-25
2021/12/24 10:04:42;;;;;;;24.57;13.43;;;11.70;99.90;;;;;;4983853;28;20593;-25
2021/12/24 10:07:16;;;;;;;22.87;13.20;;;11.70;99.90;;;;;;4969855;28;20202;-25
2021/12/24 10:09:49;;;;;;;20.57;13.30;;;11.60;99.90;;;;;;4986559;28;20254;-25
2021/12/24 10:12:23;;;;;;;20.83;12.60;;;11.70;99.90;;;;;;4969295;28;20202;-25
2021/12/24 10:15:00;;;;;;;23.10;13.17;;;11.70;99.90;;;;;;4969123;28;20293;-25
2021/12/24 10:17:34;;;;;;;22.73;12.73;;;11.70;99.90;;;;;;4972005;28;20214;-25
2021/12/24 10:20:12;;;;;;;23.70;12.23;;;11.70;99.90;;;;;;4975049;28;20218;-25
2021/12/24 10:22:51;;;;;;;19.00;12.37;;;11.70;99.90;;;;;;4975680;28;20201;-25
2021/12/24 10:25:28;;;;;;;21.07;12.53;;;11.70;99.90;;;;;;4974029;28;20699;-25
2021/12/24 10:28:08;;;;;;;21.87;12.13;;;11.70;99.90;;;;;;4979436;28;20202;-25
2021/12/24 10:30:35;;;;;;;20.50;12.00;;;11.70;99.90;;;;;;4974293;28;20286;-25
2021/12/24 10:33:10;;;;;;;19.90;11.37;;;11.80;99.90;;;;;;4976565;28;20211;-24
2021/12/24 10:35:40;;;;;;;20.53;11.13;;;11.80;99.90;;;;;;4978001;28;20224;-25
2021/12/24 10:38:20;;;;;;;23.70;11.50;;;11.80;99.90;;;;;;4978939;28;20351;-25
2021/12/24 10:40:59;;;;;;;19.20;9.77;;;11.80;99.90;;;;;;4991992;28;20236;-25
2021/12/24 10:43:29;;;;;;;23.20;9.77;;;11.80;99.90;;;;;;4974158;28;20639;-25
2021/12/24 10:46:19;;;;;;;18.57;9.30;;;11.80;99.90;;;;;;4979493;28;20206;-25
2021/12/24 10:49:07;;;;;;;17.53;9.27;;;11.80;99.90;;;;;;4973993;28;20213;-25
2021/12/24 10:52:11;;;;;;;18.77;8.70;;;11.80;99.90;;;;;;4983291;28;20203;-25
2021/12/24 10:54:51;;;;;;;15.80;8.43;;;11.80;99.90;;;;;;4971365;28;20590;-25
2021/12/24 10:57:23;;;;;;;18.43;9.07;;;11.80;99.90;;;;;;4983458;28;20197;-25
2021/12/24 10:59:54;;;;;;;12.10;7.70;;;11.80;99.90;;;;;;4989113;28;20261;-25
2021/12/24 11:02:27;;;;;;;13.80;7.80;;;11.80;99.90;;;;;;4975587;28;20258;-25
2021/12/24 11:04:54;;;;;;;18.77;8.73;;;11.80;99.90;;;;;;4979330;28;20203;-25
2021/12/24 11:07:32;;;;;;;16.20;7.70;;;11.80;99.90;;;;;;4971238;28;20206;-25
2021/12/24 11:10:12;;;;;;;18.37;7.90;;;11.90;99.90;;;;;;4971324;28;20316;-25
2021/12/24 11:12:44;;;;;;;16.97;7.63;;;11.90;99.90;;;;;;4973669;28;20725;-25
2021/12/24 11:15:28;;;;;;;16.53;7.80;;;11.90;99.90;;;;;;4976075;28;20213;-25
2021/12/24 11:18:07;;;;;;;15.80;7.37;;;11.90;99.90;;;;;;4981985;28;20301;-25
2021/12/24 11:20:36;;;;;;;14.47;6.70;;;11.90;99.90;;;;;;4971828;28;20603;-25
2021/12/24 11:23:05;;;;;;;13.83;8.13;;;11.90;99.90;;;;;;4973264;28;20213;-25
2021/12/24 11:25:41;;;;;;;11.77;7.00;;;11.90;99.90;;;;;;4973802;28;20213;-25
2021/12/24 11:28:14;;;;;;;15.23;7.67;;;12.00;99.90;;;;;;4973383;28;22663;-25
2021/12/24 11:30:49;;;;;;;15.10;7.20;;;12.00;99.90;;;;;;4971185;28;20211;-25
2021/12/24 11:33:20;;;;;;;14.30;7.30;;;12.00;99.90;;;;;;4982625;28;20635;-25
2021/12/24 11:35:52;;;;;;;16.37;7.70;;;12.00;99.90;;;;;;4978801;28;20261;-25
2021/12/24 11:38:23;;;;;;;14.97;7.10;;;12.00;99.90;;;;;;4973945;28;20761;-25
2021/12/24 11:40:52;;;;;;;13.43;7.17;;;12.00;99.90;;;;;;4974423;28;20226;-25
2021/12/24 11:43:21;;;;;;;15.97;6.80;;;12.10;99.90;;;;;;4982782;28;20216;-25
2021/12/24 11:45:49;;;;;;;17.07;8.07;;;12.00;99.90;;;;;;4974971;28;20207;-25
2021/12/24 11:48:17;;;;;;;15.20;7.17;;;12.10;99.90;;;;;;4979492;28;20596;-25
2021/12/24 11:50:45;;;;;;;14.27;7.20;;;12.10;99.90;;;;;;4975046;28;20708;-25
2021/12/24 11:53:17;;;;;;;14.17;6.93;;;12.10;99.90;;;;;;4972507;28;20321;-25
2021/12/24 11:55:50;;;;;;;16.77;7.33;;;12.10;99.90;;;;;;4972329;28;20708;-25
2021/12/24 11:58:24;;;;;;;19.73;7.73;;;12.20;99.90;;;;;;4978797;28;20665;-25
2021/12/24 12:00:55;;;;;;;14.23;6.80;;;12.20;99.90;;;;;;4977641;28;20241;-25
2021/12/24 12:03:32;;;;;;;14.30;6.83;;;12.20;99.90;;;;;;4979057;28;20203;-25
2021/12/24 12:06:01;;;;;;;11.87;6.47;;;12.20;99.90;;;;;;4975623;28;20525;-25
2021/12/24 12:08:33;;;;;;;13.87;6.63;;;12.20;99.90;;;;;;4984641;28;20202;-25
2021/12/24 12:11:02;;;;;;;11.80;6.13;;;12.30;99.90;;;;;;4976477;28;20342;-25
2021/12/24 12:13:51;;;;;;;15.10;6.67;;;12.30;99.90;;;;;;4978475;28;20226;-25
2021/12/24 12:16:23;;;;;;;13.70;6.57;;;12.30;99.90;;;;;;4974640;28;20241;-25
2021/12/24 12:19:12;;;;;;;12.87;6.30;;;12.30;99.90;;;;;;4983320;28;20947;-25
2021/12/24 12:21:42;;;;;;;13.57;6.37;;;12.40;99.90;;;;;;4988639;28;20654;-25
2021/12/24 12:26:52;;;;;;;15.17;6.60;;;12.40;99.90;;;;;;4989717;28;20214;-25
2021/12/24 12:29:22;;;;;;;12.97;6.53;;;12.40;99.90;;;;;;4985122;28;20584;-25
2021/12/24 12:32:01;;;;;;;13.10;6.77;;;12.40;99.90;;;;;;4973213;28;20211;-25
2021/12/24 12:34:43;;;;;;;11.50;6.57;;;12.40;99.90;;;;;;4982543;28;20216;-25
2021/12/24 12:37:13;;;;;;;12.63;6.63;;;12.40;99.90;;;;;;4970528;28;20297;-25
2021/12/24 12:39:40;;;;;;;12.67;6.67;;;12.40;99.90;;;;;;4973604;28;20229;-25
2021/12/24 12:42:08;;;;;;;12.53;6.73;;;12.40;99.90;;;;;;4993646;28;20199;-25
2021/12/24 12:44:39;;;;;;;11.60;6.57;;;12.40;99.90;;;;;;4970442;28;20601;-25
2021/12/24 12:47:11;;;;;;;12.67;6.37;;;12.40;99.90;;;;;;4970523;28;20586;-25
2021/12/24 12:49:39;;;;;;;12.20;6.33;;;12.50;99.90;;;;;;4972206;28;20772;-25
2021/12/24 12:52:12;;;;;;;14.27;7.10;;;12.50;99.90;;;;;;4989438;28;20241;-25
2021/12/24 12:54:51;;;;;;;16.20;7.70;;;12.50;99.90;;;;;;4985402;28;20214;-25
2021/12/24 12:57:20;;;;;;;11.63;7.23;;;12.60;99.90;;;;;;4969794;28;20619;-25
2021/12/24 13:00:19;;;;;;;16.83;8.63;;;12.60;99.90;;;;;;4984550;28;20610;-25
2021/12/24 13:03:07;;;;;;;11.47;7.00;;;12.60;99.90;;;;;;4970033;28;20239;-25
2021/12/24 13:05:40;;;;;;;14.30;7.40;;;12.60;99.90;;;;;;4985675;28;20198;-25
2021/12/24 13:08:12;;;;;;;13.73;8.13;;;12.60;99.90;;;;;;4988056;28;20325;-25
2021/12/24 13:10:40;;;;;;;14.07;8.17;;;12.60;99.90;;;;;;4980464;28;20736;-25
2021/12/24 13:13:07;;;;;;;13.30;8.03;;;12.60;99.90;;;;;;4985348;28;20210;-25
2021/12/24 13:15:45;;;;;;;12.60;7.43;;;12.60;99.90;;;;;;4972614;28;20233;-25
2021/12/24 13:18:32;;;;;;;16.13;7.17;;;12.60;99.90;;;;;;4985463;28;20213;-25
2021/12/24 13:23:36;;;;;;;14.27;7.73;;;12.60;99.90;;;;;;4987310;28;20202;-25
2021/12/24 13:26:22;;;;;;;10.80;6.90;;;12.60;99.90;;;;;;4976325;28;20222;-25
2021/12/24 13:28:59;;;;;;;15.40;8.37;;;12.60;99.90;;;;;;4977189;28;20669;-25
2021/12/24 13:31:31;;;;;;;13.63;8.47;;;12.60;99.90;;;;;;4976304;28;20207;-25
2021/12/24 13:33:59;;;;;;;15.17;7.90;;;12.60;99.90;;;;;;4983643;28;20222;-25
2021/12/24 13:36:29;;;;;;;14.20;8.27;;;12.60;99.90;;;;;;4978279;28;20202;-25
2021/12/24 13:39:10;;;;;;;9.80;7.63;;;12.70;99.90;;;;;;4968967;28;20255;-25
2021/12/24 13:41:41;;;;;;;13.27;8.07;;;12.70;99.90;;;;;;4983590;28;20225;-25
2021/12/24 13:44:27;;;;;;;15.90;9.30;;;12.70;99.90;;;;;;4969610;28;20207;-25
2021/12/24 13:47:01;;;;;;;13.60;8.60;;;12.70;99.90;;;;;;4971212;28;20199;-25
2021/12/24 13:54:54;;;;;;;16.90;9.17;;;12.80;99.90;;;;;;4980127;28;20646;-24
2021/12/24 13:57:24;;;;;;;13.17;7.90;;;12.80;99.90;;;;;;4977198;28;20198;-24
2021/12/24 13:59:52;;;;;;;11.00;7.33;;;12.80;99.90;;;;;;4982249;28;20226;-24
2021/12/24 14:02:20;;;;;;;13.47;8.00;;;12.70;99.90;;;;;;4968865;28;20311;-24
2021/12/24 14:04:59;;;;;;;12.10;7.83;;;12.80;99.90;;;;;;4977183;28;20841;-24
2021/12/24 14:07:26;;;;;;;11.87;7.53;;;12.80;99.90;;;;;;4969492;28;20711;-24
2021/12/24 14:09:54;;;;;;;14.33;8.00;;;12.80;99.90;;;;;;4972903;28;20209;-24
2021/12/24 14:12:39;;;;;;;13.47;7.73;;;12.80;99.90;;;;;;4976990;28;20281;-24
2021/12/24 14:15:10;;;;;;;11.77;7.17;;;12.70;99.90;;;;;;4968716;28;20234;-24
2021/12/24 14:18:02;;;;;;;13.10;7.50;;;12.70;99.90;;;;;;4980853;28;20206;-24
2021/12/24 14:20:59;;;;;;;14.20;7.97;;;12.70;99.90;;;;;;4969272;28;20230;-24
2021/12/24 14:23:20;;;;;;;14.07;7.30;;;12.70;99.90;;;;;;4969066;28;20689;-24
2021/12/24 14:25:56;;;;;;;12.73;6.97;;;12.70;99.90;;;;;;4968157;28;20317;-24
2021/12/24 14:28:25;;;;;;;14.07;7.23;;;12.60;99.90;;;;;;4979611;28;20198;-24
2021/12/24 14:31:04;;;;;;;11.57;6.50;;;12.60;99.90;;;;;;4968805;28;20477;-24
2021/12/24 14:33:38;;;;;;;12.43;7.33;;;12.60;99.90;;;;;;4969567;28;20225;-24